createdAt,value
2017-12-19T00:01:48.895Z,1.00
2017-12-19T00:04:16.032Z,0.99
2017-12-19T00:06:42.248Z,0.99
2017-12-19T00:09:09.485Z,0.99
2017-12-19T00:11:35.618Z,0.99
2017-12-19T00:14:01.976Z,0.99
2017-12-19T00:16:28.102Z,0.99
2017-12-19T00:18:54.428Z,0.99
2017-12-19T00:21:20.699Z,0.99
2017-12-19T00:23:47.070Z,0.99
2017-12-19T00:26:13.216Z,1.00
2017-12-19T00:28:39.550Z,1.00
2017-12-19T00:31:05.786Z,0.99
2017-12-19T00:33:32.010Z,0.99
2017-12-19T00:35:58.257Z,0.98
2017-12-19T00:38:24.388Z,0.98
2017-12-19T00:40:50.706Z,0.98
2017-12-19T00:43:16.866Z,0.99
2017-12-19T00:45:43.371Z,0.98
2017-12-19T00:48:09.709Z,0.98
2017-12-19T00:50:35.991Z,0.95
2017-12-19T00:53:02.155Z,0.95
2017-12-19T00:55:28.389Z,0.93
2017-12-19T00:57:54.638Z,0.92
2017-12-19T01:00:20.978Z,0.91
2017-12-19T01:02:47.202Z,0.90
2017-12-19T01:05:13.325Z,0.90
2017-12-19T01:07:39.473Z,0.89
2017-12-19T01:10:05.651Z,0.89
2017-12-19T01:12:31.845Z,0.90
2017-12-19T01:14:58.003Z,0.90
2017-12-19T01:17:24.171Z,0.91
2017-12-19T01:19:50.999Z,0.91
2017-12-19T01:22:17.286Z,0.91
2017-12-19T01:24:43.579Z,0.93
2017-12-19T01:27:09.791Z,0.94
2017-12-19T01:29:36.120Z,0.95
2017-12-19T01:32:02.229Z,0.94
2017-12-19T01:34:28.476Z,0.95
2017-12-19T01:36:54.598Z,0.94
2017-12-19T01:39:20.684Z,0.94
2017-12-19T01:41:46.779Z,0.94
2017-12-19T01:44:12.979Z,0.93
2017-12-19T01:46:39.097Z,0.95
2017-12-19T01:49:05.318Z,0.96
2017-12-19T01:51:31.446Z,0.96
2017-12-19T01:53:57.534Z,0.97
2017-12-19T01:56:23.645Z,0.97
2017-12-19T01:58:49.846Z,0.98
2017-12-19T02:01:16.201Z,0.97
2017-12-19T02:03:42.255Z,0.98
2017-12-19T02:06:08.298Z,0.98
2017-12-19T02:08:34.545Z,0.96
2017-12-19T02:11:00.605Z,0.96
2017-12-19T02:13:26.721Z,0.95
2017-12-19T02:15:52.765Z,0.95
2017-12-19T02:18:18.963Z,0.95
2017-12-19T02:20:46.191Z,0.96
2017-12-19T02:23:12.514Z,0.96
2017-12-19T02:25:38.751Z,0.96
2017-12-19T02:28:04.885Z,0.96
2017-12-19T02:30:31.093Z,0.97
2017-12-19T02:32:57.303Z,0.97
2017-12-19T02:35:23.579Z,0.97
2017-12-19T02:37:49.953Z,0.96
2017-12-19T02:40:16.021Z,0.94
2017-12-19T02:42:55.310Z,0.94
2017-12-19T02:45:21.473Z,0.94
2017-12-19T02:47:47.592Z,0.95
2017-12-19T02:50:13.781Z,0.96
2017-12-19T02:52:39.997Z,0.96
2017-12-19T02:55:07.246Z,0.96
2017-12-19T02:57:33.314Z,0.96
2017-12-19T03:00:00.226Z,0.96
2017-12-19T03:02:27.349Z,0.96
2017-12-19T03:04:53.522Z,0.95
2017-12-19T03:07:19.768Z,0.95
2017-12-19T03:09:46.122Z,0.95
2017-12-19T03:12:12.257Z,0.92
2017-12-19T03:14:38.404Z,0.90
2017-12-19T03:17:04.711Z,0.89
2017-12-19T03:19:30.944Z,0.88
2017-12-19T03:21:57.175Z,0.87
2017-12-19T03:24:23.385Z,0.87
2017-12-19T03:26:49.528Z,0.87
2017-12-19T03:29:15.857Z,0.88
2017-12-19T03:31:41.988Z,0.90
2017-12-19T03:34:08.169Z,0.91
2017-12-19T03:36:34.355Z,0.89
2017-12-19T03:39:00.491Z,0.89
2017-12-19T03:41:26.599Z,0.86
2017-12-19T03:43:52.745Z,0.85
2017-12-19T03:46:19.037Z,0.84
2017-12-19T03:48:45.283Z,0.83
2017-12-19T03:51:11.622Z,0.83
2017-12-19T03:53:37.840Z,0.84
2017-12-19T03:56:04.266Z,0.85
2017-12-19T03:58:30.423Z,0.86
2017-12-19T04:00:56.830Z,0.87
2017-12-19T04:03:23.606Z,0.88
2017-12-19T04:05:49.689Z,0.89
2017-12-19T04:08:15.937Z,0.89
2017-12-19T04:10:42.051Z,0.89
2017-12-19T04:13:08.841Z,0.89
2017-12-19T04:15:35.107Z,0.89
2017-12-19T04:18:01.516Z,0.87
2017-12-19T04:20:27.683Z,0.86
2017-12-19T04:22:53.954Z,0.85
2017-12-19T04:25:20.098Z,0.84
2017-12-19T04:27:46.220Z,0.83
2017-12-19T04:30:12.492Z,0.82
2017-12-19T04:32:38.592Z,0.82
2017-12-19T04:35:04.713Z,0.83
2017-12-19T04:37:30.958Z,0.85
2017-12-19T04:39:57.104Z,0.87
2017-12-19T04:42:23.188Z,0.88
2017-12-19T04:44:49.391Z,0.90
2017-12-19T04:47:15.568Z,0.92
2017-12-19T04:49:41.723Z,0.93
2017-12-19T04:52:08.113Z,0.94
2017-12-19T04:54:34.308Z,0.94
2017-12-19T04:57:00.469Z,0.95
2017-12-19T04:59:26.534Z,0.96
2017-12-19T05:01:53.219Z,0.97
2017-12-19T05:04:19.557Z,0.98
2017-12-19T05:06:45.774Z,0.98
2017-12-19T05:09:12.346Z,0.96
2017-12-19T05:11:39.222Z,0.95
2017-12-19T05:14:06.083Z,0.93
2017-12-19T05:16:32.606Z,0.92
2017-12-19T05:19:01.792Z,0.91
2017-12-19T05:21:28.435Z,0.90
2017-12-19T05:23:55.256Z,0.89
2017-12-19T05:26:21.761Z,0.90
2017-12-19T05:28:48.395Z,0.91
2017-12-19T05:31:15.067Z,0.92
2017-12-19T05:33:41.603Z,0.92
2017-12-19T05:36:08.417Z,0.92
2017-12-19T05:38:35.076Z,0.91
2017-12-19T05:57:57.670Z,0.91
2017-12-19T06:03:00.168Z,0.89
2017-12-19T06:05:31.283Z,0.90
2017-12-19T06:10:34.896Z,0.91
2017-12-19T06:13:01.444Z,0.92
2017-12-19T06:15:27.984Z,0.92
2017-12-19T06:17:56.849Z,0.92
2017-12-19T06:20:23.798Z,0.93
2017-12-19T06:22:50.553Z,0.93
2017-12-19T06:25:18.124Z,0.94
2017-12-19T06:30:17.181Z,0.96
2017-12-19T06:32:44.112Z,0.99
2017-12-19T06:35:11.048Z,0.99
2017-12-19T06:37:37.683Z,1.00
2017-12-19T06:40:04.026Z,1.02
2017-12-19T06:42:30.556Z,1.00
2017-12-19T06:44:57.096Z,1.00
2017-12-19T06:47:23.945Z,1.00
2017-12-19T06:49:50.534Z,1.01
2017-12-19T06:52:17.278Z,1.00
2017-12-19T06:54:43.747Z,1.00
2017-12-19T06:57:10.480Z,1.00
2017-12-19T06:59:37.163Z,1.02
2017-12-19T07:02:03.649Z,1.02
2017-12-19T07:04:30.007Z,1.02
2017-12-19T07:06:56.396Z,1.04
2017-12-19T07:09:22.962Z,1.04
2017-12-19T07:11:49.603Z,1.06
2017-12-19T07:14:16.392Z,1.06
2017-12-19T07:16:43.024Z,1.06
2017-12-19T07:19:09.510Z,1.05
2017-12-19T07:21:36.633Z,1.06
2017-12-19T07:24:03.126Z,1.07
2017-12-19T07:26:29.529Z,1.07
2017-12-19T07:28:56.077Z,1.09
2017-12-19T07:31:22.639Z,1.11
2017-12-19T07:33:48.960Z,1.11
2017-12-19T07:36:15.404Z,1.11
2017-12-19T07:38:41.571Z,1.12
2017-12-19T07:41:07.703Z,1.13
2017-12-19T07:43:33.950Z,1.15
2017-12-19T07:46:00.072Z,1.17
2017-12-19T07:48:26.203Z,1.17
2017-12-19T07:50:52.469Z,1.19
2017-12-19T07:53:18.691Z,1.21
2017-12-19T07:55:44.934Z,1.24
2017-12-19T07:58:11.069Z,1.27
2017-12-19T08:00:37.184Z,1.29
2017-12-19T08:03:03.269Z,1.31
2017-12-19T08:05:29.373Z,1.32
2017-12-19T08:07:55.575Z,1.34
2017-12-19T08:10:21.699Z,1.38
2017-12-19T08:12:47.860Z,1.40
2017-12-19T08:15:14.177Z,1.44
2017-12-19T08:17:40.415Z,1.49
2017-12-19T08:20:06.763Z,1.51
2017-12-19T08:22:33.013Z,1.52
2017-12-19T08:24:59.253Z,1.54
2017-12-19T08:27:25.525Z,1.54
2017-12-19T08:29:51.780Z,1.55
2017-12-19T08:32:18.219Z,1.55
2017-12-19T08:34:44.783Z,1.57
2017-12-19T08:37:11.003Z,1.58
2017-12-19T08:39:37.077Z,1.58
2017-12-19T08:42:03.449Z,1.61
2017-12-19T08:44:29.465Z,1.64
2017-12-19T08:46:55.583Z,1.70
2017-12-19T08:49:22.908Z,1.78
2017-12-19T08:51:48.973Z,1.85
2017-12-19T08:54:15.222Z,1.89
2017-12-19T08:56:41.346Z,1.91
2017-12-19T08:59:07.608Z,1.95
2017-12-19T09:01:33.801Z,2.01
2017-12-19T09:03:59.935Z,2.08
2017-12-19T09:06:26.068Z,2.18
2017-12-19T09:08:52.109Z,2.29
2017-12-19T09:11:18.315Z,2.39
2017-12-19T09:13:44.431Z,2.51
2017-12-19T09:16:10.590Z,2.59
2017-12-19T09:18:36.718Z,2.60
2017-12-19T09:21:02.836Z,2.52
2017-12-19T09:23:28.845Z,2.45
2017-12-19T09:25:54.862Z,2.43
2017-12-19T09:28:21.442Z,2.40
2017-12-19T09:30:47.554Z,2.38
2017-12-19T09:33:13.645Z,2.41
2017-12-19T09:35:39.652Z,2.43
2017-12-19T09:38:07.123Z,2.47
2017-12-19T09:40:33.181Z,2.51
2017-12-19T09:42:59.244Z,2.51
2017-12-19T09:45:25.446Z,2.52
2017-12-19T09:47:51.485Z,2.49
2017-12-19T09:50:17.590Z,2.49
2017-12-19T09:52:43.683Z,2.47
2017-12-19T09:55:09.877Z,2.51
2017-12-19T09:57:35.987Z,2.58
2017-12-19T10:00:02.183Z,2.64
2017-12-19T10:02:28.334Z,2.71
2017-12-19T10:04:54.438Z,2.78
2017-12-19T10:07:20.518Z,2.84
2017-12-19T10:09:46.672Z,2.89
2017-12-19T10:12:12.796Z,2.96
2017-12-19T10:14:38.993Z,2.96
2017-12-19T10:17:05.139Z,3.00
2017-12-19T10:19:31.273Z,3.06
2017-12-19T10:21:57.337Z,3.12
2017-12-19T10:24:23.426Z,3.17
2017-12-19T10:26:49.486Z,3.20
2017-12-19T10:29:15.906Z,3.25
2017-12-19T10:31:42.175Z,3.28
2017-12-19T10:34:08.596Z,3.32
2017-12-19T10:36:35.190Z,3.34
2017-12-19T10:39:02.208Z,3.37
2017-12-19T10:41:28.800Z,3.44
2017-12-19T10:43:55.361Z,3.51
2017-12-19T10:46:21.948Z,3.60
2017-12-19T10:48:48.221Z,3.66
2017-12-19T10:51:15.421Z,3.74
2017-12-19T10:53:41.770Z,3.82
2017-12-19T10:56:08.291Z,3.86
2017-12-19T10:58:34.633Z,3.92
2017-12-19T11:01:01.813Z,3.96
2017-12-19T11:03:28.212Z,4.02
2017-12-19T11:05:54.835Z,4.14
2017-12-19T11:08:30.307Z,4.31
2017-12-19T11:10:56.507Z,4.41
2017-12-19T11:13:41.484Z,4.48
2017-12-19T11:16:08.184Z,4.61
2017-12-19T11:18:34.471Z,4.76
2017-12-19T11:21:00.814Z,4.83
2017-12-19T11:23:27.491Z,4.91
2017-12-19T11:25:56.973Z,4.97
2017-12-19T11:28:23.283Z,4.98
2017-12-19T11:30:50.143Z,4.93
2017-12-19T11:33:16.781Z,4.84
2017-12-19T11:35:43.695Z,4.75
2017-12-19T11:38:10.008Z,4.66
2017-12-19T11:40:37.057Z,4.59
2017-12-19T11:43:04.258Z,4.57
2017-12-19T11:45:30.382Z,4.58
2017-12-19T11:47:56.566Z,4.62
2017-12-19T11:50:25.303Z,4.63
2017-12-19T11:52:53.523Z,4.62
2017-12-19T11:55:19.725Z,4.62
2017-12-19T11:57:46.149Z,4.60
2017-12-19T12:00:12.781Z,4.54
2017-12-19T12:02:43.128Z,4.49
2017-12-19T12:05:10.632Z,4.44
2017-12-19T12:07:37.013Z,4.36
2017-12-19T12:10:03.602Z,4.26
2017-12-19T12:12:35.994Z,4.24
2017-12-19T12:15:02.813Z,4.29
2017-12-19T12:17:29.396Z,4.30
2017-12-19T12:19:56.124Z,4.29
2017-12-19T12:22:22.916Z,4.23
2017-12-19T12:24:54.119Z,4.17
2017-12-19T12:27:20.926Z,4.07
2017-12-19T12:29:47.695Z,4.02
2017-12-19T12:32:14.222Z,4.01
2017-12-19T12:34:41.889Z,4.03
2017-12-19T12:37:08.824Z,4.07
2017-12-19T12:39:34.891Z,4.10
2017-12-19T12:42:01.039Z,4.09
2017-12-19T12:44:27.152Z,4.09
2017-12-19T12:46:53.359Z,4.09
2017-12-19T12:49:19.499Z,4.10
2017-12-19T12:51:45.589Z,4.09
2017-12-19T12:54:11.734Z,4.04
2017-12-19T12:56:38.930Z,3.97
2017-12-19T12:59:05.479Z,3.94
2017-12-19T13:01:31.933Z,3.94
2017-12-19T13:03:58.154Z,3.90
2017-12-19T13:06:24.653Z,3.91
2017-12-19T13:08:51.154Z,3.92
2017-12-19T13:11:17.352Z,3.96
2017-12-19T13:13:43.738Z,3.97
2017-12-19T13:16:10.398Z,3.96
2017-12-19T13:18:36.492Z,3.93
2017-12-19T13:21:02.710Z,3.91
2017-12-19T13:23:29.268Z,3.88
2017-12-19T13:25:55.615Z,3.86
2017-12-19T13:28:21.860Z,3.84
2017-12-19T13:30:48.100Z,3.84
2017-12-19T13:33:14.676Z,3.84
2017-12-19T13:35:41.042Z,3.82
2017-12-19T13:38:07.512Z,3.78
2017-12-19T13:40:33.936Z,3.72
2017-12-19T13:43:00.263Z,3.68
2017-12-19T13:45:26.502Z,3.65
2017-12-19T13:47:52.726Z,3.62
2017-12-19T13:50:19.314Z,3.59
2017-12-19T13:52:45.550Z,3.53
2017-12-19T13:55:11.757Z,3.50
2017-12-19T13:57:38.112Z,3.51
2017-12-19T14:00:04.228Z,3.53
2017-12-19T14:02:35.659Z,3.48
2017-12-19T14:05:02.440Z,3.42
2017-12-19T14:07:28.474Z,3.35
2017-12-19T14:09:55.029Z,3.30
2017-12-19T14:12:21.151Z,3.28
2017-12-19T14:14:47.194Z,3.26
2017-12-19T14:17:20.274Z,3.24
2017-12-19T14:19:46.439Z,3.20
2017-12-19T14:22:12.566Z,3.19
2017-12-19T14:24:38.685Z,3.16
2017-12-19T14:27:04.893Z,3.15
2017-12-19T14:29:31.396Z,3.14
2017-12-19T14:31:58.031Z,3.12
2017-12-19T14:34:24.533Z,3.12
2017-12-19T14:36:50.895Z,3.10
2017-12-19T14:39:17.448Z,3.07
2017-12-19T14:41:43.965Z,3.04
2017-12-19T14:44:10.390Z,2.98
2017-12-19T14:46:37.082Z,2.95
2017-12-19T14:49:03.572Z,2.89
2017-12-19T14:51:30.170Z,2.85
2017-12-19T14:53:56.718Z,2.81
2017-12-19T14:56:24.377Z,2.78
2017-12-19T14:58:51.185Z,2.75
2017-12-19T15:01:17.251Z,2.72
2017-12-19T15:03:43.293Z,2.69
2017-12-19T15:06:09.862Z,2.66
2017-12-19T15:08:36.566Z,2.62
2017-12-19T15:11:02.926Z,2.60
2017-12-19T15:13:29.388Z,2.57
2017-12-19T15:15:55.896Z,2.54
2017-12-19T15:18:22.268Z,2.52
2017-12-19T15:20:48.869Z,2.49
2017-12-19T15:25:52.486Z,2.38
2017-12-19T15:30:58.769Z,2.25
2017-12-19T15:36:01.665Z,2.12
2017-12-19T15:38:32.069Z,2.05
2017-12-19T15:43:34.325Z,1.98
2017-12-19T15:46:06.612Z,1.94
2017-12-19T15:51:12.386Z,1.91
2017-12-19T15:56:16.913Z,1.89
2017-12-19T16:09:28.322Z,1.80
2017-12-19T16:12:18.887Z,1.78
2017-12-19T16:14:46.642Z,1.75
2017-12-19T16:17:12.926Z,1.74
2017-12-19T16:19:39.276Z,1.73
2017-12-19T16:22:05.675Z,1.72
2017-12-19T16:24:31.908Z,1.72
2017-12-19T16:26:58.510Z,1.72
2017-12-19T16:29:24.874Z,1.70
2017-12-19T16:31:51.212Z,1.69
2017-12-19T16:34:21.214Z,1.66
2017-12-19T16:36:48.496Z,1.63
2017-12-19T16:39:20.868Z,1.60
2017-12-19T16:41:48.406Z,1.57
2017-12-19T16:44:18.532Z,1.57
2017-12-19T16:46:46.382Z,1.57
2017-12-19T16:49:15.198Z,1.59
2017-12-19T16:51:42.639Z,1.61
2017-12-19T16:54:08.959Z,1.62
2017-12-19T16:56:35.184Z,1.66
2017-12-19T16:59:01.985Z,1.68
2017-12-19T17:01:28.151Z,1.69
2017-12-19T17:03:59.006Z,1.71
2017-12-19T17:06:26.976Z,1.72
2017-12-19T17:08:53.683Z,1.72
2017-12-19T17:11:20.454Z,1.71
2017-12-19T17:13:47.348Z,1.72
2017-12-19T17:16:14.236Z,1.71
2017-12-19T17:18:41.486Z,1.71
2017-12-19T17:21:10.991Z,1.70
2017-12-19T17:23:37.819Z,1.71
2017-12-19T17:26:06.129Z,1.69
2017-12-19T17:28:36.511Z,1.68
2017-12-19T17:31:08.533Z,1.65
2017-12-19T17:36:45.301Z,1.61
2017-12-19T17:39:19.211Z,1.61
2017-12-19T17:41:46.364Z,1.60
2017-12-19T17:44:24.265Z,1.62
2017-12-19T17:46:51.501Z,1.62
2017-12-19T17:51:51.361Z,1.65
2017-12-19T17:54:18.774Z,1.67
2017-12-19T17:56:44.991Z,1.67
2017-12-19T17:59:11.385Z,1.66
2017-12-19T18:01:38.148Z,1.66
2017-12-19T18:04:04.602Z,1.67
2017-12-19T18:06:30.954Z,1.69
2017-12-19T18:08:57.266Z,1.70
2017-12-19T18:13:54.720Z,1.70
2017-12-19T18:16:21.080Z,1.68
2017-12-19T18:18:47.395Z,1.65
2017-12-19T18:21:13.968Z,1.63
2017-12-19T18:23:40.304Z,1.62
2017-12-19T18:26:06.597Z,1.62
2017-12-19T18:28:33.134Z,1.63
2017-12-19T18:31:01.559Z,1.64
2017-12-19T18:33:27.710Z,1.64
2017-12-19T18:35:54.371Z,1.63
2017-12-19T18:38:20.845Z,1.63
2017-12-19T18:40:47.343Z,1.62
2017-12-19T18:43:14.695Z,1.62
2017-12-19T18:45:40.826Z,1.63
2017-12-19T18:48:07.164Z,1.62
2017-12-19T18:53:05.021Z,1.62
2017-12-19T18:55:31.282Z,1.61
2017-12-19T18:57:57.595Z,1.61
2017-12-19T19:00:23.794Z,1.62
2017-12-19T19:02:50.092Z,1.61
2017-12-19T19:05:16.628Z,1.61
2017-12-19T19:07:43.064Z,1.61
2017-12-19T19:10:09.880Z,1.62
2017-12-19T19:12:37.329Z,1.60
2017-12-19T19:15:03.820Z,1.58
2017-12-19T19:17:32.837Z,1.58
2017-12-19T19:19:59.308Z,1.57
2017-12-19T19:22:29.858Z,1.57
2017-12-19T19:24:56.394Z,1.56
2017-12-19T19:27:23.120Z,1.54
2017-12-19T19:29:54.255Z,1.54
2017-12-19T19:32:23.372Z,1.53
2017-12-19T19:34:52.124Z,1.51
2017-12-19T19:37:20.097Z,1.50
2017-12-19T19:39:48.319Z,1.50
2017-12-19T19:45:09.698Z,1.47
2017-12-19T19:47:38.866Z,1.46
2017-12-19T19:50:17.848Z,1.46
2017-12-19T19:52:47.980Z,1.46
2017-12-19T19:55:17.072Z,1.45
2017-12-19T19:57:47.203Z,1.45
2017-12-19T20:00:21.967Z,1.45
2017-12-19T20:02:51.951Z,1.44
2017-12-19T20:05:19.981Z,1.43
2017-12-19T20:07:50.172Z,1.42
2017-12-19T20:10:19.297Z,1.41
2017-12-19T20:12:47.202Z,1.40
2017-12-19T20:15:19.048Z,1.39
2017-12-19T20:17:47.953Z,1.38
2017-12-19T20:20:16.655Z,1.38
2017-12-19T20:22:43.866Z,1.38
2017-12-19T20:25:11.243Z,1.41
2017-12-19T20:27:39.057Z,1.43
2017-12-19T20:30:06.468Z,1.44
2017-12-19T20:32:35.912Z,1.44
2017-12-19T20:35:04.209Z,1.45
2017-12-19T20:37:33.471Z,1.45
2017-12-19T20:40:00.785Z,1.45
2017-12-19T20:42:29.008Z,1.45
2017-12-19T20:44:56.924Z,1.46
2017-12-19T20:47:25.373Z,1.45
2017-12-19T20:49:52.646Z,1.44
2017-12-19T20:52:20.123Z,1.44
2017-12-19T20:54:47.448Z,1.45
2017-12-19T20:57:14.840Z,1.45
2017-12-19T20:59:42.502Z,1.45
2017-12-19T21:02:09.379Z,1.44
2017-12-19T21:04:36.892Z,1.45
2017-12-19T21:07:03.986Z,1.45
2017-12-19T21:09:33.353Z,1.42
2017-12-19T21:12:02.645Z,1.40
2017-12-19T21:14:32.828Z,1.39
2017-12-19T21:17:00.400Z,1.39
2017-12-19T21:19:27.646Z,1.39
2017-12-19T21:24:28.323Z,1.37
2017-12-19T21:26:56.654Z,1.38
2017-12-19T21:29:22.978Z,1.38
2017-12-19T21:31:49.940Z,1.38
2017-12-19T21:34:17.521Z,1.38
2017-12-19T21:36:44.026Z,1.36
2017-12-19T21:39:12.389Z,1.36
2017-12-19T21:41:39.046Z,1.33
2017-12-19T21:44:05.428Z,1.32
2017-12-19T21:46:31.732Z,1.32
2017-12-19T21:48:58.530Z,1.33
2017-12-19T21:51:24.875Z,1.33
2017-12-19T21:53:51.274Z,1.33
2017-12-19T21:56:18.020Z,1.34
2017-12-19T21:58:46.071Z,1.35
2017-12-19T22:01:12.533Z,1.35
2017-12-19T22:03:39.158Z,1.34
2017-12-19T22:06:05.771Z,1.34
2017-12-19T22:08:32.106Z,1.33
2017-12-19T22:10:58.466Z,1.35
2017-12-19T22:13:25.103Z,1.33
2017-12-19T22:15:51.300Z,1.34
2017-12-19T22:18:17.753Z,1.34
2017-12-19T22:20:44.764Z,1.35
2017-12-19T22:23:11.320Z,1.36
2017-12-19T22:25:38.040Z,1.37
2017-12-19T22:28:05.170Z,1.36
2017-12-19T22:30:31.616Z,1.37
2017-12-19T22:32:58.073Z,1.36
2017-12-19T22:35:24.408Z,1.37
2017-12-19T22:37:50.522Z,1.38
2017-12-19T22:40:16.738Z,1.39
2017-12-19T22:42:43.115Z,1.37
2017-12-19T22:45:09.368Z,1.37
2017-12-19T22:47:35.834Z,1.35
2017-12-19T22:50:02.313Z,1.33
2017-12-19T22:52:28.720Z,1.32
2017-12-19T22:54:54.873Z,1.31
2017-12-19T22:57:22.283Z,1.30
2017-12-19T22:59:48.632Z,1.28
2017-12-19T23:02:14.972Z,1.26
2017-12-19T23:04:41.409Z,1.23
2017-12-19T23:07:08.028Z,1.23
2017-12-19T23:09:34.359Z,1.22
2017-12-19T23:12:00.432Z,1.24
2017-12-19T23:14:26.981Z,1.25
2017-12-19T23:16:53.212Z,1.25
2017-12-19T23:19:19.508Z,1.27
2017-12-19T23:21:45.771Z,1.30
2017-12-19T23:24:11.976Z,1.31
2017-12-19T23:26:38.390Z,1.31
2017-12-19T23:29:04.824Z,1.29
2017-12-19T23:31:31.118Z,1.27
2017-12-19T23:33:57.493Z,1.26
2017-12-19T23:36:23.624Z,1.25
2017-12-19T23:38:49.939Z,1.24
2017-12-19T23:41:16.170Z,1.24
2017-12-19T23:43:42.402Z,1.25
2017-12-19T23:46:08.525Z,1.26
2017-12-19T23:48:34.678Z,1.26
2017-12-19T23:51:00.900Z,1.26
2017-12-19T23:53:27.400Z,1.28
2017-12-19T23:55:53.648Z,1.27
2017-12-19T23:58:19.885Z,1.27
